createdAt,value
2023-04-29T00:01:08.132Z,101232.66
2023-04-29T00:03:56.082Z,101256.19
2023-04-29T00:06:43.520Z,101260.56
2023-04-29T00:09:30.636Z,101252.72
2023-04-29T00:12:18.161Z,101261.50
2023-04-29T00:15:05.262Z,101252.78
2023-04-29T00:17:53.106Z,101252.84
2023-04-29T00:20:40.383Z,101256.34
2023-04-29T00:23:27.314Z,101252.03
2023-04-29T00:26:14.273Z,101253.78
2023-04-29T00:29:05.835Z,101255.53
2023-04-29T00:31:52.931Z,101243.34
2023-04-29T00:34:40.193Z,101248.56
2023-04-29T00:37:27.351Z,101247.66
2023-04-29T00:40:14.295Z,101246.78
2023-04-29T00:43:01.971Z,101208.59
2023-04-29T00:45:48.933Z,101247.75
2023-04-29T00:48:36.060Z,101241.63
2023-04-29T00:51:23.218Z,101236.41
2023-04-29T00:54:10.574Z,101184.34
2023-04-29T00:56:59.499Z,101204.31
2023-04-29T00:59:46.994Z,101227.75
2023-04-29T01:02:34.142Z,101153.13
2023-04-29T01:05:21.302Z,101241.72
2023-04-29T01:08:20.302Z,101244.34
2023-04-29T01:11:18.230Z,101233.91
2023-04-29T01:14:22.884Z,101239.19
2023-04-29T01:17:19.799Z,101241.03
2023-04-29T01:20:15.668Z,101221.03
2023-04-29T01:23:03.113Z,101228.81
2023-04-29T01:25:50.504Z,101236.66
2023-04-29T01:28:47.456Z,101238.41
2023-04-29T01:32:24.566Z,101233.16
2023-04-29T01:35:27.489Z,101228.78
2023-04-29T01:38:29.854Z,101228.78
2023-04-29T01:41:37.888Z,101228.81
2023-04-29T01:44:44.629Z,101227.03
2023-04-29T01:47:34.599Z,101220.06
2023-04-29T01:50:21.716Z,101215.66
2023-04-29T01:53:09.343Z,101216.50
2023-04-29T01:55:56.485Z,101189.47
2023-04-29T01:58:47.969Z,101139.97
2023-04-29T02:01:58.509Z,101149.41
2023-04-29T02:04:46.208Z,101204.13
2023-04-29T02:07:33.488Z,101195.31
2023-04-29T02:10:20.835Z,101200.56
2023-04-29T02:13:11.194Z,101200.56
2023-04-29T02:16:18.190Z,101202.31
2023-04-29T02:19:25.575Z,101198.84
2023-04-29T02:22:15.446Z,101193.53
2023-04-29T02:25:03.137Z,101179.59
2023-04-29T02:27:52.082Z,101189.97
2023-04-29T02:30:39.337Z,101140.50
2023-04-29T02:33:26.334Z,101156.91
2023-04-29T02:36:13.526Z,101177.66
2023-04-29T02:39:00.703Z,101163.75
2023-04-29T02:41:47.664Z,101174.13
2023-04-29T02:44:34.918Z,101172.41
2023-04-29T02:47:22.076Z,101153.25
2023-04-29T02:50:09.602Z,101108.94
2023-04-29T02:52:56.979Z,101167.09
2023-04-29T02:55:44.104Z,101135.84
2023-04-29T02:58:31.297Z,101168.81
2023-04-29T03:01:18.358Z,101160.03
2023-04-29T03:04:05.954Z,101128.78
2023-04-29T03:06:53.189Z,101170.47
2023-04-29T03:09:40.727Z,101164.38
2023-04-29T03:12:27.784Z,101160.09
2023-04-29T03:15:15.145Z,101162.69
2023-04-29T03:18:02.636Z,101160.94
2023-04-29T03:20:50.043Z,101162.69
2023-04-29T03:23:36.927Z,101079.25
2023-04-29T03:26:25.453Z,101151.28
2023-04-29T03:29:12.605Z,101147.72
2023-04-29T03:31:59.900Z,101146.88
2023-04-29T03:34:46.839Z,101152.97
2023-04-29T03:38:06.137Z,101150.31
2023-04-29T03:40:54.727Z,101138.03
2023-04-29T03:43:42.428Z,101085.91
2023-04-29T03:46:32.260Z,101132.69
2023-04-29T03:49:21.445Z,101113.56
2023-04-29T03:52:09.322Z,101134.34
2023-04-29T03:54:56.468Z,101130.84
2023-04-29T03:57:43.679Z,101118.63
2023-04-29T04:00:32.470Z,101134.28
2023-04-29T04:03:23.134Z,101115.91
2023-04-29T04:06:10.951Z,101121.94
2023-04-29T04:08:58.459Z,101130.63
2023-04-29T04:11:48.775Z,101124.47
2023-04-29T04:14:36.006Z,101113.06
2023-04-29T04:17:23.093Z,101105.28
2023-04-29T04:20:10.808Z,101120.06
2023-04-29T04:22:58.284Z,101118.25
2023-04-29T04:25:49.339Z,101037.47
2023-04-29T04:29:08.974Z,101114.72
2023-04-29T04:32:11.082Z,101102.53
2023-04-29T04:35:02.129Z,101111.19
2023-04-29T04:37:49.188Z,101090.31
2023-04-29T04:40:36.204Z,101112.03
2023-04-29T04:43:58.734Z,101106.75
2023-04-29T04:46:55.658Z,101099.75
2023-04-29T04:49:59.531Z,101097.13
2023-04-29T04:52:47.364Z,101101.50
2023-04-29T04:55:54.721Z,101092.78
2023-04-29T04:58:41.842Z,101105.88
2023-04-29T05:01:29.888Z,101098.03
2023-04-29T05:04:17.436Z,101105.03
2023-04-29T05:07:04.694Z,101095.41
2023-04-29T05:10:02.506Z,101098.88
2023-04-29T05:12:51.654Z,101100.59
2023-04-29T05:15:39.874Z,101093.56
2023-04-29T05:18:28.623Z,101054.47
2023-04-29T05:21:17.570Z,101080.34
2023-04-29T05:24:05.293Z,101081.97
2023-04-29T05:26:52.793Z,101077.47
2023-04-29T05:29:39.820Z,101043.56
2023-04-29T05:32:27.221Z,101076.38
2023-04-29T05:35:14.205Z,101071.88
2023-04-29T05:38:01.666Z,101070.88
2023-04-29T05:40:56.431Z,101070.75
2023-04-29T05:43:52.634Z,101061.06
2023-04-29T05:46:39.665Z,101052.22
2023-04-29T05:49:26.776Z,101061.69
2023-04-29T05:52:13.680Z,101043.25
2023-04-29T05:55:05.758Z,101056.25
2023-04-29T05:57:52.837Z,101049.13
2023-04-29T06:00:40.182Z,101040.25
2023-04-29T06:03:33.712Z,101027.38
2023-04-29T06:06:43.854Z,101051.53
2023-04-29T06:09:39.173Z,101051.41
2023-04-29T06:12:26.438Z,101028.72
2023-04-29T06:15:13.722Z,101031.13
2023-04-29T06:18:01.308Z,101035.50
2023-04-29T06:20:48.307Z,101040.72
2023-04-29T06:23:35.784Z,101025.84
2023-04-29T06:26:28.186Z,101033.69
2023-04-29T06:29:15.723Z,101024.84
2023-04-29T06:32:02.746Z,101010.94
2023-04-29T06:34:50.609Z,101008.19
2023-04-29T06:37:52.286Z,101001.06
2023-04-29T06:40:57.824Z,101012.28
2023-04-29T06:44:13.676Z,100985.28
2023-04-29T06:47:22.855Z,100970.38
2023-04-29T06:50:36.549Z,100999.69
2023-04-29T06:53:27.112Z,100911.19
2023-04-29T06:56:16.725Z,101001.16
2023-04-29T06:59:04.744Z,100998.44
2023-04-29T07:01:51.981Z,100912.59
2023-04-29T07:04:40.229Z,100988.47
2023-04-29T07:07:27.390Z,100980.44
2023-04-29T07:10:14.443Z,100987.22
2023-04-29T07:13:01.395Z,100987.06
2023-04-29T07:15:48.917Z,100981.63
2023-04-29T07:18:36.154Z,100971.09
2023-04-29T07:21:23.244Z,100979.50
2023-04-29T07:24:10.169Z,100973.16
2023-04-29T07:26:57.151Z,100960.66
2023-04-29T07:29:44.302Z,100973.63
2023-04-29T07:32:31.623Z,100962.88
2023-04-29T07:35:21.744Z,100954.03
2023-04-29T07:38:08.904Z,100957.28
2023-04-29T07:40:56.067Z,100955.34
2023-04-29T07:43:43.823Z,100956.88
2023-04-29T07:46:30.791Z,100935.03
2023-04-29T07:49:18.590Z,100945.06
2023-04-29T07:52:05.576Z,100950.94
2023-04-29T07:54:53.129Z,100942.75
2023-04-29T07:57:40.375Z,100942.38
2023-04-29T08:00:08.551Z,100935.88
2023-04-29T08:02:42.708Z,100937.31
2023-04-29T08:05:12.603Z,100943.09
2023-04-29T08:07:40.026Z,100928.69
2023-04-29T08:10:07.787Z,100925.84
2023-04-29T08:12:38.221Z,100929.88
2023-04-29T08:15:26.106Z,100930.28
2023-04-29T08:18:14.259Z,100930.78
2023-04-29T08:21:01.595Z,100917.34
2023-04-29T08:23:48.558Z,100936.16
2023-04-29T08:26:35.613Z,100935.84
2023-04-29T08:29:22.528Z,100927.69
2023-04-29T08:32:09.664Z,100932.75
2023-04-29T08:34:56.764Z,100936.91
2023-04-29T08:37:43.646Z,100929.53
2023-04-29T08:40:31.097Z,100918.88
2023-04-29T08:43:19.417Z,100913.47
2023-04-29T08:46:09.146Z,100928.88
2023-04-29T08:48:57.685Z,100913.06
2023-04-29T08:51:44.610Z,100919.69
2023-04-29T08:54:31.693Z,100918.47
2023-04-29T08:57:19.991Z,100921.63
2023-04-29T09:00:07.428Z,100919.78
2023-04-29T09:03:01.889Z,100916.03
2023-04-29T09:05:49.747Z,100923.72
2023-04-29T09:08:37.611Z,100909.41
2023-04-29T09:11:28.434Z,100924.97
2023-04-29T09:14:22.982Z,100836.38
2023-04-29T09:17:10.103Z,100914.97
2023-04-29T09:19:57.509Z,100918.44
2023-04-29T09:22:44.673Z,100915.72
2023-04-29T09:25:35.104Z,100917.34
2023-04-29T09:28:35.586Z,100909.44
2023-04-29T09:31:23.263Z,100864.28
2023-04-29T09:34:12.907Z,100910.59
2023-04-29T09:37:02.381Z,100914.63
2023-04-29T09:39:58.835Z,100907.16
2023-04-29T09:42:46.296Z,100904.31
2023-04-29T09:45:33.238Z,100912.69
2023-04-29T09:48:24.119Z,100910.56
2023-04-29T09:51:21.909Z,100907.31
2023-04-29T09:54:09.191Z,100913.88
2023-04-29T09:57:10.162Z,100907.31
2023-04-29T09:59:59.374Z,100885.47
2023-04-29T10:02:47.922Z,100918.25
2023-04-29T10:05:35.965Z,100918.03
2023-04-29T10:08:23.250Z,100908.06
2023-04-29T10:11:11.178Z,100898.84
2023-04-29T10:14:02.194Z,100891.50
2023-04-29T10:16:51.526Z,100903.81
2023-04-29T10:19:52.449Z,100903.03
2023-04-29T10:23:12.582Z,100896.16
2023-04-29T10:26:01.914Z,100892.06
2023-04-29T10:28:52.069Z,100890.81
2023-04-29T10:31:40.223Z,100882.94
2023-04-29T10:34:27.802Z,100889.38
2023-04-29T10:37:15.009Z,100892.13
2023-04-29T10:40:21.846Z,100877.53
2023-04-29T10:43:10.152Z,100888.97
2023-04-29T10:45:57.568Z,100885.28
2023-04-29T10:48:44.759Z,100870.50
2023-04-29T10:51:31.964Z,100878.41
2023-04-29T10:54:19.686Z,100884.50
2023-04-29T10:57:14.342Z,100875.28
2023-04-29T11:00:01.237Z,100874.66
2023-04-29T11:02:48.420Z,100857.25
2023-04-29T11:05:35.450Z,100852.75
2023-04-29T11:08:32.826Z,100853.22
2023-04-29T11:11:22.996Z,100852.41
2023-04-29T11:14:10.539Z,100858.69
2023-04-29T11:16:58.494Z,100863.56
2023-04-29T11:19:53.084Z,100850.59
2023-04-29T11:22:43.288Z,100858.78
2023-04-29T11:25:30.271Z,100865.22
2023-04-29T11:28:17.927Z,100849.16
2023-04-29T11:31:06.383Z,100842.03
2023-04-29T11:33:53.430Z,100850.28
2023-04-29T11:36:40.629Z,100852.50
2023-04-29T11:39:28.268Z,100854.47
2023-04-29T11:42:27.960Z,100828.78
2023-04-29T11:45:15.754Z,100797.22
2023-04-29T11:48:07.274Z,100827.63
2023-04-29T11:50:54.239Z,100849.91
2023-04-29T11:53:42.288Z,100853.88
2023-04-29T11:56:30.377Z,100848.81
2023-04-29T11:59:18.212Z,100849.03
2023-04-29T12:02:05.151Z,100832.44
2023-04-29T12:04:52.369Z,100849.09
2023-04-29T12:07:39.637Z,100840.63
2023-04-29T12:10:33.303Z,100843.50
2023-04-29T12:13:20.598Z,100838.47
2023-04-29T12:16:09.832Z,100844.06
2023-04-29T12:18:57.108Z,100828.41
2023-04-29T12:21:44.175Z,100829.00
2023-04-29T12:24:33.227Z,100826.59
2023-04-29T12:27:20.826Z,100818.19
2023-04-29T12:30:07.815Z,100818.81
2023-04-29T12:32:54.797Z,100817.03
2023-04-29T12:35:41.924Z,100810.81
2023-04-29T12:38:29.927Z,100812.28
2023-04-29T12:41:19.688Z,100804.06
2023-04-29T12:44:06.754Z,100813.53
2023-04-29T12:47:01.695Z,100802.84
2023-04-29T12:49:48.761Z,100807.50
2023-04-29T12:52:36.949Z,100808.72
2023-04-29T12:55:24.310Z,100810.69
2023-04-29T12:58:11.379Z,100810.75
2023-04-29T13:00:38.593Z,100806.16
2023-04-29T13:03:25.749Z,100807.09
2023-04-29T13:06:13.081Z,100802.72
2023-04-29T13:09:00.174Z,100785.38
2023-04-29T13:11:47.262Z,100794.88
2023-04-29T13:14:34.257Z,100791.44
2023-04-29T13:17:21.908Z,100806.91
2023-04-29T13:20:11.451Z,100795.91
2023-04-29T13:23:03.729Z,100796.63
2023-04-29T13:25:53.260Z,100794.16
2023-04-29T13:28:42.554Z,100784.03
2023-04-29T13:31:30.223Z,100788.13
2023-04-29T13:34:18.747Z,100788.41
2023-04-29T13:37:07.628Z,100769.72
2023-04-29T13:39:57.621Z,100786.09
2023-04-29T13:42:50.115Z,100790.78
2023-04-29T13:45:43.789Z,100796.31
2023-04-29T13:54:48.157Z,100806.91
2023-04-29T14:00:44.282Z,100721.38
2023-04-29T14:03:23.239Z,100804.00
2023-04-29T14:06:10.277Z,100810.72
2023-04-29T14:08:57.312Z,100801.69
2023-04-29T14:11:44.496Z,100773.19
2023-04-29T14:14:31.712Z,100799.91
2023-04-29T14:17:18.753Z,100784.78
2023-04-29T14:20:06.011Z,100797.94
2023-04-29T14:22:53.084Z,100799.28
2023-04-29T14:25:40.063Z,100810.97
2023-04-29T14:28:26.994Z,100779.38
2023-04-29T14:31:13.989Z,100800.97
2023-04-29T14:34:00.947Z,100807.06
2023-04-29T14:36:47.992Z,100799.75
2023-04-29T14:39:34.888Z,100799.28
2023-04-29T14:42:21.724Z,100791.47
2023-04-29T14:45:08.846Z,100788.88
2023-04-29T14:47:55.920Z,100782.84
2023-04-29T14:50:43.048Z,100777.44
2023-04-29T14:53:30.052Z,100789.91
2023-04-29T14:56:16.999Z,100784.59
2023-04-29T14:59:04.248Z,100779.94
2023-04-29T15:01:51.285Z,100786.13
2023-04-29T15:04:38.282Z,100772.81
2023-04-29T15:07:25.226Z,100775.41
2023-04-29T15:10:12.367Z,100768.88
2023-04-29T15:12:59.378Z,100764.97
2023-04-29T15:15:46.677Z,100764.97
2023-04-29T15:18:33.557Z,100772.44
2023-04-29T15:21:20.642Z,100725.63
2023-04-29T15:24:07.957Z,100767.91
2023-04-29T15:26:55.021Z,100763.78
2023-04-29T15:29:41.994Z,100763.28
2023-04-29T15:32:28.972Z,100764.84
2023-04-29T15:35:16.086Z,100769.91
2023-04-29T15:37:59.527Z,100764.09
2023-04-29T15:40:46.478Z,100760.38
2023-04-29T15:43:33.661Z,100769.81
2023-04-29T15:46:20.695Z,100766.41
2023-04-29T15:49:08.013Z,100755.84
2023-04-29T15:51:54.985Z,100758.50
2023-04-29T15:54:41.964Z,100743.69
2023-04-29T15:57:29.062Z,100750.91
2023-04-29T16:00:16.462Z,100755.03
2023-04-29T16:03:03.525Z,100747.78
2023-04-29T16:05:50.538Z,100750.06
2023-04-29T16:08:37.464Z,100754.06
2023-04-29T16:11:24.350Z,100681.31
2023-04-29T16:14:11.383Z,100749.72
2023-04-29T16:16:58.715Z,100731.94
2023-04-29T16:19:45.731Z,100743.19
2023-04-29T16:22:32.745Z,100745.06
2023-04-29T16:25:19.820Z,100748.28
2023-04-29T16:28:07.226Z,100734.91
2023-04-29T16:30:54.922Z,100747.63
2023-04-29T16:33:42.153Z,100743.09
2023-04-29T16:36:29.218Z,100743.34
2023-04-29T16:39:16.298Z,100737.75
2023-04-29T16:42:03.264Z,100731.25
2023-04-29T16:44:50.282Z,100739.31
2023-04-29T16:47:37.393Z,100740.47
2023-04-29T16:50:24.759Z,100740.63
2023-04-29T16:53:11.790Z,100741.03
2023-04-29T16:55:58.865Z,100731.44
2023-04-29T16:58:45.953Z,100745.97
2023-04-29T17:01:33.127Z,100726.59
2023-04-29T17:04:20.193Z,100741.47
2023-04-29T17:07:07.358Z,100743.75
2023-04-29T17:09:54.697Z,100738.94
2023-04-29T17:12:41.939Z,100742.09
2023-04-29T17:15:29.198Z,100746.06
2023-04-29T17:18:16.133Z,100739.44
2023-04-29T17:21:04.113Z,100743.44
2023-04-29T17:23:51.217Z,100725.84
2023-04-29T17:26:38.204Z,100703.41
2023-04-29T17:29:25.576Z,100740.00
2023-04-29T17:32:15.175Z,100745.53
2023-04-29T17:35:02.306Z,100745.28
2023-04-29T17:37:49.265Z,100752.38
2023-04-29T17:40:36.416Z,100747.84
2023-04-29T17:43:23.312Z,100743.97
2023-04-29T17:46:10.614Z,100688.59
2023-04-29T17:48:57.515Z,100757.97
2023-04-29T17:51:44.596Z,100753.88
2023-04-29T17:54:31.464Z,100762.13
2023-04-29T17:57:18.411Z,100735.50
2023-04-29T18:00:05.258Z,100765.31
2023-04-29T18:02:52.428Z,100714.84
2023-04-29T18:05:40.373Z,100758.00
2023-04-29T18:08:27.291Z,100758.47
2023-04-29T18:11:14.286Z,100762.28
2023-04-29T18:14:01.560Z,100762.69
2023-04-29T18:16:48.526Z,100767.53
2023-04-29T18:19:35.560Z,100766.09
2023-04-29T18:22:22.501Z,100773.44
2023-04-29T18:25:09.551Z,100761.69
2023-04-29T18:28:07.539Z,100770.56
2023-04-29T18:31:05.475Z,100771.81
2023-04-29T18:33:52.442Z,100773.00
2023-04-29T18:36:39.783Z,100772.44
2023-04-29T18:39:26.841Z,100771.84
2023-04-29T18:42:13.944Z,100769.53
2023-04-29T18:45:00.854Z,100771.50
2023-04-29T18:47:47.961Z,100768.28
2023-04-29T18:50:35.023Z,100763.19
2023-04-29T18:53:22.074Z,100765.19
2023-04-29T18:56:09.113Z,100749.81
2023-04-29T18:58:56.186Z,100763.97
2023-04-29T19:01:43.353Z,100767.75
2023-04-29T19:04:30.464Z,100763.53
2023-04-29T19:07:18.078Z,100767.22
2023-04-29T19:10:05.120Z,100765.59
2023-04-29T19:12:52.255Z,100766.59
2023-04-29T19:15:39.202Z,100765.84
2023-04-29T19:18:26.248Z,100764.25
2023-04-29T19:21:13.542Z,100759.16
2023-04-29T19:24:01.601Z,100765.47
2023-04-29T19:26:48.802Z,100766.56
2023-04-29T19:29:36.367Z,100766.75
2023-04-29T19:32:23.449Z,100764.34
2023-04-29T19:35:10.898Z,100773.31
2023-04-29T19:37:58.223Z,100770.91
2023-04-29T19:40:45.289Z,100750.13
2023-04-29T19:43:32.305Z,100772.06
2023-04-29T19:46:19.356Z,100766.97
2023-04-29T19:49:06.438Z,100755.84
2023-04-29T19:51:53.381Z,100769.81
2023-04-29T19:54:40.337Z,100762.94
2023-04-29T19:57:27.236Z,100750.25
2023-04-29T20:00:14.245Z,100767.63
2023-04-29T20:03:01.817Z,100731.53
2023-04-29T20:05:49.242Z,100757.72
2023-04-29T20:08:36.251Z,100762.94
2023-04-29T20:11:23.408Z,100759.59
2023-04-29T20:14:10.468Z,100758.81
2023-04-29T20:17:00.215Z,100762.50
2023-04-29T20:19:47.593Z,100758.25
2023-04-29T20:22:34.546Z,100760.13
2023-04-29T20:25:21.792Z,100763.88
2023-04-29T20:28:08.878Z,100745.66
2023-04-29T20:30:56.323Z,100758.63
2023-04-29T20:33:43.271Z,100760.53
2023-04-29T20:36:30.396Z,100750.94
2023-04-29T20:39:17.405Z,100757.25
2023-04-29T20:42:04.604Z,100752.94
2023-04-29T20:44:51.670Z,100751.41
2023-04-29T20:47:38.775Z,100761.97
2023-04-29T20:50:26.581Z,100749.78
2023-04-29T20:53:13.609Z,100761.28
2023-04-29T20:56:00.700Z,100754.41
2023-04-29T20:58:47.669Z,100757.13
2023-04-29T21:01:35.627Z,100748.56
2023-04-29T21:04:25.542Z,100753.88
2023-04-29T21:07:12.622Z,100755.78
2023-04-29T21:09:59.737Z,100754.06
2023-04-29T21:12:46.732Z,100750.69
2023-04-29T21:15:34.125Z,100699.19
2023-04-29T21:18:21.178Z,100760.63
2023-04-29T21:21:08.202Z,100764.28
2023-04-29T21:23:55.235Z,100735.13
2023-04-29T21:26:42.314Z,100769.84
2023-04-29T21:29:29.624Z,100763.84
2023-04-29T21:32:16.699Z,100764.88
2023-04-29T21:35:03.612Z,100769.44
2023-04-29T21:37:50.779Z,100767.75
2023-04-29T21:40:37.914Z,100767.09
2023-04-29T21:43:25.120Z,100772.38
2023-04-29T21:46:13.495Z,100731.03
2023-04-29T21:49:00.482Z,100766.44
2023-04-29T21:51:49.244Z,100702.69
2023-04-29T21:54:36.319Z,100765.66
2023-04-29T21:57:35.680Z,100757.84
2023-04-29T22:00:31.036Z,100767.50
2023-04-29T22:03:18.202Z,100766.66
2023-04-29T22:06:05.433Z,100762.31
2023-04-29T22:08:52.503Z,100772.97
2023-04-29T22:11:39.559Z,100767.69
2023-04-29T22:14:26.633Z,100771.25
2023-04-29T22:17:13.638Z,100767.81
2023-04-29T22:20:00.850Z,100771.38
2023-04-29T22:22:47.828Z,100784.53
2023-04-29T22:25:34.934Z,100799.56
2023-04-29T22:28:22.060Z,100787.41
2023-04-29T22:31:09.191Z,100781.44
2023-04-29T22:33:56.376Z,100790.13
2023-04-29T22:36:43.510Z,100786.63
2023-04-29T22:39:30.447Z,100790.16
2023-04-29T22:42:17.435Z,100786.75
2023-04-29T22:45:04.430Z,100784.16
2023-04-29T22:47:51.415Z,100777.16
2023-04-29T22:50:38.731Z,100762.59
2023-04-29T22:53:25.769Z,100743.47
2023-04-29T22:56:14.344Z,100772.91
2023-04-29T22:59:01.359Z,100772.13
2023-04-29T23:01:48.588Z,100757.41
2023-04-29T23:04:35.735Z,100763.47
2023-04-29T23:07:22.881Z,100768.78
2023-04-29T23:10:11.045Z,100761.78
2023-04-29T23:12:58.078Z,100740.91
2023-04-29T23:15:48.870Z,100668.31
2023-04-29T23:18:35.926Z,100745.16
2023-04-29T23:21:23.070Z,100735.56
2023-04-29T23:24:10.015Z,100743.50
2023-04-29T23:26:57.306Z,100739.19
2023-04-29T23:29:44.388Z,100738.50
2023-04-29T23:32:31.736Z,100755.03
2023-04-29T23:35:18.899Z,100754.16
2023-04-29T23:38:05.926Z,100754.16
2023-04-29T23:40:53.145Z,100749.03
2023-04-29T23:43:40.338Z,100751.53
2023-04-29T23:46:27.471Z,100738.47
2023-04-29T23:49:14.768Z,100751.50
2023-04-29T23:52:01.918Z,100753.28
2023-04-29T23:54:48.914Z,100755.13
2023-04-29T23:57:36.065Z,100754.16
